sensor_id;sensor_type;location;lat;lon;timestamp;pressure;altitude;pressure_sealevel;temperature;humidity
37238;BME280;23129;49.662;8.448;2022-12-18T00:00:07;102109.06;;;-5.51;100.00
37238;BME280;23129;49.662;8.448;2022-12-18T00:02:44;102106.34;;;-5.54;100.00
37238;BME280;23129;49.662;8.448;2022-12-18T00:05:13;102107.13;;;-5.55;100.00
37238;BME280;23129;49.662;8.448;2022-12-18T00:07:42;102107.81;;;-5.57;100.00
37238;BME280;23129;49.662;8.448;2022-12-18T00:10:10;102107.53;;;-5.62;100.00
37238;BME280;23129;49.662;8.448;2022-12-18T00:12:41;102107.34;;;-5.65;100.00
37238;BME280;23129;49.662;8.448;2022-12-18T00:15:10;102103.66;;;-5.68;100.00
37238;BME280;23129;49.662;8.448;2022-12-18T00:17:38;102099.47;;;-5.68;100.00
37238;BME280;23129;49.662;8.448;2022-12-18T00:20:09;102099.47;;;-5.68;100.00
37238;BME280;23129;49.662;8.448;2022-12-18T00:22:38;102095.94;;;-5.70;100.00
37238;BME280;23129;49.662;8.448;2022-12-18T00:25:08;102108.50;;;-5.73;100.00
37238;BME280;23129;49.662;8.448;2022-12-18T00:27:36;102112.72;;;-5.74;100.00
37238;BME280;23129;49.662;8.448;2022-12-18T00:30:06;102118.59;;;-5.75;100.00
37238;BME280;23129;49.662;8.448;2022-12-18T00:32:36;102132.38;;;-5.72;100.00
37238;BME280;23129;49.662;8.448;2022-12-18T00:35:05;102125.41;;;-5.75;100.00
37238;BME280;23129;49.662;8.448;2022-12-18T00:37:35;102127.06;;;-5.76;100.00
37238;BME280;23129;49.662;8.448;2022-12-18T00:40:05;102117.53;;;-5.78;100.00
37238;BME280;23129;49.662;8.448;2022-12-18T00:42:34;102124.22;;;-5.80;100.00
37238;BME280;23129;49.662;8.448;2022-12-18T00:45:20;102126.78;;;-5.80;100.00
37238;BME280;23129;49.662;8.448;2022-12-18T00:47:52;102124.91;;;-5.83;100.00
37238;BME280;23129;49.662;8.448;2022-12-18T00:50:22;102120.56;;;-5.84;100.00
37238;BME280;23129;49.662;8.448;2022-12-18T00:52:52;102125.78;;;-5.82;100.00
37238;BME280;23129;49.662;8.448;2022-12-18T00:55:20;102121.69;;;-5.80;100.00
37238;BME280;23129;49.662;8.448;2022-12-18T00:57:50;102118.41;;;-5.78;100.00
37238;BME280;23129;49.662;8.448;2022-12-18T01:00:19;102110.66;;;-5.79;100.00
37238;BME280;23129;49.662;8.448;2022-12-18T01:02:47;102120.88;;;-5.79;100.00
37238;BME280;23129;49.662;8.448;2022-12-18T01:05:16;102120.88;;;-5.79;100.00
37238;BME280;23129;49.662;8.448;2022-12-18T01:07:45;102124.44;;;-5.77;100.00
37238;BME280;23129;49.662;8.448;2022-12-18T01:10:15;102117.34;;;-5.81;100.00
37238;BME280;23129;49.662;8.448;2022-12-18T01:12:43;102110.94;;;-5.88;100.00
37238;BME280;23129;49.662;8.448;2022-12-18T01:15:13;102102.97;;;-5.92;100.00
37238;BME280;23129;49.662;8.448;2022-12-18T01:17:43;102106.34;;;-5.93;100.00
37238;BME280;23129;49.662;8.448;2022-12-18T01:20:12;102108.06;;;-5.92;100.00
37238;BME280;23129;49.662;8.448;2022-12-18T01:22:41;102120.09;;;-5.91;100.00
37238;BME280;23129;49.662;8.448;2022-12-18T01:25:09;102110.81;;;-5.89;100.00
37238;BME280;23129;49.662;8.448;2022-12-18T01:27:39;102118.69;;;-5.86;100.00
37238;BME280;23129;49.662;8.448;2022-12-18T01:30:09;102119.69;;;-5.84;100.00
37238;BME280;23129;49.662;8.448;2022-12-18T01:32:38;102116.25;;;-5.85;100.00
37238;BME280;23129;49.662;8.448;2022-12-18T01:35:07;102118.22;;;-5.81;100.00
37238;BME280;23129;49.662;8.448;2022-12-18T01:37:36;102110.47;;;-5.82;100.00
37238;BME280;23129;49.662;8.448;2022-12-18T01:40:06;102121.47;;;-5.83;100.00
37238;BME280;23129;49.662;8.448;2022-12-18T01:42:35;102133.47;;;-5.82;100.00
37238;BME280;23129;49.662;8.448;2022-12-18T01:45:22;102129.16;;;-5.83;100.00
37238;BME280;23129;49.662;8.448;2022-12-18T01:47:53;102139.38;;;-5.83;100.00
37238;BME280;23129;49.662;8.448;2022-12-18T01:50:27;102149.25;;;-5.88;100.00
37238;BME280;23129;49.662;8.448;2022-12-18T01:53:02;102152.41;;;-5.92;100.00
37238;BME280;23129;49.662;8.448;2022-12-18T01:55:37;102137.00;;;-5.93;100.00
37238;BME280;23129;49.662;8.448;2022-12-18T01:58:09;102131.06;;;-5.92;100.00
37238;BME280;23129;49.662;8.448;2022-12-18T02:00:39;102138.72;;;-5.92;100.00
37238;BME280;23129;49.662;8.448;2022-12-18T02:03:08;102144.75;;;-5.92;100.00
37238;BME280;23129;49.662;8.448;2022-12-18T02:05:44;102137.00;;;-5.93;100.00
37238;BME280;23129;49.662;8.448;2022-12-18T02:08:20;102137.59;;;-5.98;100.00
37238;BME280;23129;49.662;8.448;2022-12-18T02:10:58;102132.28;;;-6.01;100.00
37238;BME280;23129;49.662;8.448;2022-12-18T02:13:40;102143.19;;;-6.03;100.00
37238;BME280;23129;49.662;8.448;2022-12-18T02:16:18;102136.00;;;-6.09;100.00
37238;BME280;23129;49.662;8.448;2022-12-18T02:18:55;102136.00;;;-6.09;100.00
37238;BME280;23129;49.662;8.448;2022-12-18T02:21:32;102142.84;;;-6.08;100.00
37238;BME280;23129;49.662;8.448;2022-12-18T02:24:27;102142.66;;;-6.11;100.00
37238;BME280;23129;49.662;8.448;2022-12-18T02:27:02;102127.31;;;-6.11;100.00
37238;BME280;23129;49.662;8.448;2022-12-18T02:29:35;102127.31;;;-6.11;100.00
37238;BME280;23129;49.662;8.448;2022-12-18T02:32:09;102128.91;;;-6.13;100.00
37238;BME280;23129;49.662;8.448;2022-12-18T02:34:40;102118.69;;;-6.13;100.00
37238;BME280;23129;49.662;8.448;2022-12-18T02:37:16;102103.38;;;-6.13;100.00
37238;BME280;23129;49.662;8.448;2022-12-18T02:39:47;102106.50;;;-6.17;100.00
37238;BME280;23129;49.662;8.448;2022-12-18T02:42:19;102106.41;;;-6.18;100.00
37238;BME280;23129;49.662;8.448;2022-12-18T02:44:50;102105.63;;;-6.17;100.00
37238;BME280;23129;49.662;8.448;2022-12-18T02:47:26;102108.28;;;-6.16;100.00
37238;BME280;23129;49.662;8.448;2022-12-18T02:50:06;102101.38;;;-6.17;100.00
37238;BME280;23129;49.662;8.448;2022-12-18T02:52:42;102092.16;;;-6.15;100.00
37238;BME280;23129;49.662;8.448;2022-12-18T02:55:28;102082.75;;;-6.16;100.00
37238;BME280;23129;49.662;8.448;2022-12-18T02:58:11;102092.16;;;-6.15;100.00
37238;BME280;23129;49.662;8.448;2022-12-18T03:00:50;102098.06;;;-6.16;100.00
37238;BME280;23129;49.662;8.448;2022-12-18T03:03:26;102105.81;;;-6.14;100.00
37238;BME280;23129;49.662;8.448;2022-12-18T03:06:01;102103.19;;;-6.16;100.00
37238;BME280;23129;49.662;8.448;2022-12-18T03:08:36;102113.41;;;-6.16;100.00
37238;BME280;23129;49.662;8.448;2022-12-18T03:11:09;102110.84;;;-6.16;100.00
37238;BME280;23129;49.662;8.448;2022-12-18T03:13:45;102126.38;;;-6.13;100.00
37238;BME280;23129;49.662;8.448;2022-12-18T03:16:17;102120.47;;;-6.12;100.00
37238;BME280;23129;49.662;8.448;2022-12-18T03:18:51;102110.72;;;-6.17;100.00
37238;BME280;23129;49.662;8.448;2022-12-18T03:21:24;102109.63;;;-6.21;100.00
37238;BME280;23129;49.662;8.448;2022-12-18T03:23:55;102106.75;;;-6.26;100.00
37238;BME280;23129;49.662;8.448;2022-12-18T03:26:27;102093.03;;;-6.28;100.00
37238;BME280;23129;49.662;8.448;2022-12-18T03:29:04;102097.13;;;-6.30;100.00
37238;BME280;23129;49.662;8.448;2022-12-18T03:31:36;102097.22;;;-6.28;100.00
37238;BME280;23129;49.662;8.448;2022-12-18T03:34:12;102098.13;;;-6.28;100.00
37238;BME280;23129;49.662;8.448;2022-12-18T03:36:45;102110.00;;;-6.28;100.00
37238;BME280;23129;49.662;8.448;2022-12-18T03:39:15;102117.66;;;-6.28;100.00
37238;BME280;23129;49.662;8.448;2022-12-18T03:41:55;102113.72;;;-6.36;100.00
37238;BME280;23129;49.662;8.448;2022-12-18T03:44:42;102111.72;;;-6.40;100.00
37238;BME280;23129;49.662;8.448;2022-12-18T03:47:16;102119.50;;;-6.39;100.00
37238;BME280;23129;49.662;8.448;2022-12-18T03:49:55;102118.16;;;-6.34;100.00
37238;BME280;23129;49.662;8.448;2022-12-18T03:52:28;102108.81;;;-6.33;100.00
37238;BME280;23129;49.662;8.448;2022-12-18T03:54:58;102109.56;;;-6.34;100.00
37238;BME280;23129;49.662;8.448;2022-12-18T03:57:31;102111.16;;;-6.36;100.00
37238;BME280;23129;49.662;8.448;2022-12-18T04:00:05;102099.53;;;-6.45;100.00
37238;BME280;23129;49.662;8.448;2022-12-18T04:02:46;102107.00;;;-6.48;100.00
37238;BME280;23129;49.662;8.448;2022-12-18T04:05:25;102105.91;;;-6.51;100.00
37238;BME280;23129;49.662;8.448;2022-12-18T04:07:55;102112.47;;;-6.55;100.00
37238;BME280;23129;49.662;8.448;2022-12-18T04:10:25;102106.25;;;-6.58;100.00
37238;BME280;23129;49.662;8.448;2022-12-18T04:12:56;102101.72;;;-6.62;100.00
37238;BME280;23129;49.662;8.448;2022-12-18T04:15:27;102100.66;;;-6.66;100.00
37238;BME280;23129;49.662;8.448;2022-12-18T04:17:58;102104.53;;;-6.71;100.00
37238;BME280;23129;49.662;8.448;2022-12-18T04:20:35;102100.78;;;-6.76;100.00
37238;BME280;23129;49.662;8.448;2022-12-18T04:23:04;102097.81;;;-6.82;100.00
37238;BME280;23129;49.662;8.448;2022-12-18T04:25:32;102092.28;;;-6.89;100.00
37238;BME280;23129;49.662;8.448;2022-12-18T04:28:07;102091.97;;;-6.93;100.00
37238;BME280;23129;49.662;8.448;2022-12-18T04:30:39;102089.31;;;-6.95;100.00
37238;BME280;23129;49.662;8.448;2022-12-18T04:33:09;102098.63;;;-6.95;100.00
37238;BME280;23129;49.662;8.448;2022-12-18T04:35:39;102091.88;;;-6.95;100.00
37238;BME280;23129;49.662;8.448;2022-12-18T04:38:08;102097.97;;;-6.93;100.00
37238;BME280;23129;49.662;8.448;2022-12-18T04:40:38;102097.75;;;-6.96;100.00
37238;BME280;23129;49.662;8.448;2022-12-18T04:43:15;102095.78;;;-7.00;100.00
37238;BME280;23129;49.662;8.448;2022-12-18T04:45:44;102097.78;;;-7.07;100.00
37238;BME280;23129;49.662;8.448;2022-12-18T04:48:13;102092.47;;;-7.10;100.00
37238;BME280;23129;49.662;8.448;2022-12-18T04:50:42;102098.22;;;-7.13;100.00
37238;BME280;23129;49.662;8.448;2022-12-18T04:53:10;102100.56;;;-7.16;100.00
37238;BME280;23129;49.662;8.448;2022-12-18T04:55:39;102102.91;;;-7.19;100.00
37238;BME280;23129;49.662;8.448;2022-12-18T04:58:07;102098.59;;;-7.20;100.00
37238;BME280;23129;49.662;8.448;2022-12-18T05:00:36;102097.81;;;-7.19;100.00
37238;BME280;23129;49.662;8.448;2022-12-18T05:03:06;102102.91;;;-7.19;100.00
37238;BME280;23129;49.662;8.448;2022-12-18T05:05:35;102099.34;;;-7.21;100.00
37238;BME280;23129;49.662;8.448;2022-12-18T05:08:04;102097.50;;;-7.24;100.00
37238;BME280;23129;49.662;8.448;2022-12-18T05:10:32;102114.22;;;-7.27;100.00
37238;BME280;23129;49.662;8.448;2022-12-18T05:13:04;102114.88;;;-7.30;100.00
37238;BME280;23129;49.662;8.448;2022-12-18T05:15:33;102123.75;;;-7.37;100.00
37238;BME280;23129;49.662;8.448;2022-12-18T05:18:02;102126.66;;;-7.44;100.00
37238;BME280;23129;49.662;8.448;2022-12-18T05:20:32;102121.13;;;-7.50;100.00
37238;BME280;23129;49.662;8.448;2022-12-18T05:23:01;102120.78;;;-7.54;100.00
37238;BME280;23129;49.662;8.448;2022-12-18T05:25:29;102128.75;;;-7.62;100.00
37238;BME280;23129;49.662;8.448;2022-12-18T05:27:58;102116.47;;;-7.67;100.00
37238;BME280;23129;49.662;8.448;2022-12-18T05:30:27;102122.00;;;-7.73;100.00
37238;BME280;23129;49.662;8.448;2022-12-18T05:32:55;102110.69;;;-7.76;100.00
37238;BME280;23129;49.662;8.448;2022-12-18T05:35:24;102112.00;;;-7.82;100.00
37238;BME280;23129;49.662;8.448;2022-12-18T05:37:53;102120.22;;;-7.86;100.00
37238;BME280;23129;49.662;8.448;2022-12-18T05:40:22;102122.31;;;-7.92;100.00
37238;BME280;23129;49.662;8.448;2022-12-18T05:42:50;102124.63;;;-7.95;100.00
37238;BME280;23129;49.662;8.448;2022-12-18T05:45:19;102120.84;;;-8.00;100.00
37238;BME280;23129;49.662;8.448;2022-12-18T05:47:48;102125.63;;;-8.05;100.00
37238;BME280;23129;49.662;8.448;2022-12-18T05:50:16;102121.06;;;-8.09;100.00
37238;BME280;23129;49.662;8.448;2022-12-18T05:52:45;102117.41;;;-8.12;100.00
37238;BME280;23129;49.662;8.448;2022-12-18T05:55:18;102117.19;;;-8.15;100.00
37238;BME280;23129;49.662;8.448;2022-12-18T05:57:48;102117.97;;;-8.16;100.00
37238;BME280;23129;49.662;8.448;2022-12-18T06:00:17;102116.81;;;-8.20;100.00
37238;BME280;23129;49.662;8.448;2022-12-18T06:02:47;102118.16;;;-8.25;100.00
37238;BME280;23129;49.662;8.448;2022-12-18T06:05:16;102130.53;;;-8.30;100.00
37238;BME280;23129;49.662;8.448;2022-12-18T06:07:44;102136.38;;;-8.31;100.00
37238;BME280;23129;49.662;8.448;2022-12-18T06:10:12;102144.44;;;-8.36;100.00
37238;BME280;23129;49.662;8.448;2022-12-18T06:12:42;102136.63;;;-8.39;100.00
37238;BME280;23129;49.662;8.448;2022-12-18T06:15:12;102133.84;;;-8.42;100.00
37238;BME280;23129;49.662;8.448;2022-12-18T06:17:41;102132.72;;;-8.46;100.00
37238;BME280;23129;49.662;8.448;2022-12-18T06:20:10;102135.78;;;-8.50;100.00
37238;BME280;23129;49.662;8.448;2022-12-18T06:22:39;102140.63;;;-8.53;100.00
37238;BME280;23129;49.662;8.448;2022-12-18T06:25:08;102149.06;;;-8.54;100.00
37238;BME280;23129;49.662;8.448;2022-12-18T06:27:36;102146.50;;;-8.54;100.00
37238;BME280;23129;49.662;8.448;2022-12-18T06:30:08;102154.91;;;-8.55;100.00
37238;BME280;23129;49.662;8.448;2022-12-18T06:32:37;102165.84;;;-8.56;100.00
37238;BME280;23129;49.662;8.448;2022-12-18T06:35:06;102154.56;;;-8.60;100.00
37238;BME280;23129;49.662;8.448;2022-12-18T06:37:35;102159.53;;;-8.61;100.00
37238;BME280;23129;49.662;8.448;2022-12-18T06:40:04;102153.44;;;-8.63;100.00
37238;BME280;23129;49.662;8.448;2022-12-18T06:42:34;102156.75;;;-8.64;100.00
37238;BME280;23129;49.662;8.448;2022-12-18T06:45:03;102179.50;;;-8.66;100.00
37238;BME280;23129;49.662;8.448;2022-12-18T06:47:33;102175.31;;;-8.65;100.00
37238;BME280;23129;49.662;8.448;2022-12-18T06:50:03;102169.97;;;-8.68;100.00
37238;BME280;23129;49.662;8.448;2022-12-18T06:52:33;102173.31;;;-8.69;100.00
37238;BME280;23129;49.662;8.448;2022-12-18T06:55:02;102190.22;;;-8.70;100.00
37238;BME280;23129;49.662;8.448;2022-12-18T06:57:31;102197.72;;;-8.71;100.00
37238;BME280;23129;49.662;8.448;2022-12-18T06:59:59;102193.41;;;-8.73;100.00
37238;BME280;23129;49.662;8.448;2022-12-18T07:02:28;102197.38;;;-8.76;100.00
37238;BME280;23129;49.662;8.448;2022-12-18T07:05:01;102189.63;;;-8.78;100.00
37238;BME280;23129;49.662;8.448;2022-12-18T07:07:36;102197.13;;;-8.79;100.00
37238;BME280;23129;49.662;8.448;2022-12-18T07:10:06;102190.25;;;-8.80;100.00
37238;BME280;23129;49.662;8.448;2022-12-18T07:12:34;102207.06;;;-8.82;100.00
37238;BME280;23129;49.662;8.448;2022-12-18T07:15:04;102194.22;;;-8.84;100.00
37238;BME280;23129;49.662;8.448;2022-12-18T07:17:32;102190.41;;;-8.89;100.00
37238;BME280;23129;49.662;8.448;2022-12-18T07:20:03;102196.94;;;-8.92;100.00
37238;BME280;23129;49.662;8.448;2022-12-18T07:22:32;102196.81;;;-8.94;100.00
37238;BME280;23129;49.662;8.448;2022-12-18T07:25:00;102198.34;;;-8.96;100.00
37238;BME280;23129;49.662;8.448;2022-12-18T07:27:29;102196.44;;;-8.99;100.00
37238;BME280;23129;49.662;8.448;2022-12-18T07:29:58;102201.44;;;-9.00;100.00
37238;BME280;23129;49.662;8.448;2022-12-18T07:32:26;102194.53;;;-9.01;100.00
37238;BME280;23129;49.662;8.448;2022-12-18T07:34:55;102201.94;;;-9.04;100.00
37238;BME280;23129;49.662;8.448;2022-12-18T07:37:25;102199.16;;;-9.07;100.00
37238;BME280;23129;49.662;8.448;2022-12-18T07:39:54;102197.38;;;-9.08;100.00
37238;BME280;23129;49.662;8.448;2022-12-18T07:42:22;102192.28;;;-9.08;100.00
37238;BME280;23129;49.662;8.448;2022-12-18T07:45:00;102180.56;;;-9.06;100.00
37238;BME280;23129;49.662;8.448;2022-12-18T07:47:29;102187.69;;;-9.02;100.00
37238;BME280;23129;49.662;8.448;2022-12-18T07:50:00;102191.50;;;-8.97;100.00
37238;BME280;23129;49.662;8.448;2022-12-18T07:52:30;102189.31;;;-8.92;100.00
37238;BME280;23129;49.662;8.448;2022-12-18T07:54:59;102199.84;;;-8.88;100.00
37238;BME280;23129;49.662;8.448;2022-12-18T07:57:27;102196.22;;;-8.80;100.00
37238;BME280;23129;49.662;8.448;2022-12-18T08:00:16;102194.94;;;-8.75;100.00
37238;BME280;23129;49.662;8.448;2022-12-18T08:02:45;102205.47;;;-8.70;100.00
37238;BME280;23129;49.662;8.448;2022-12-18T08:05:15;102211.16;;;-8.62;100.00
37238;BME280;23129;49.662;8.448;2022-12-18T08:07:47;102213.19;;;-8.58;100.00
37238;BME280;23129;49.662;8.448;2022-12-18T08:10:16;102214.94;;;-8.57;100.00
37238;BME280;23129;49.662;8.448;2022-12-18T08:12:44;102216.06;;;-8.54;100.00
37238;BME280;23129;49.662;8.448;2022-12-18T08:15:13;102222.50;;;-8.47;100.00
37238;BME280;23129;49.662;8.448;2022-12-18T08:17:41;102211.28;;;-8.39;100.00
37238;BME280;23129;49.662;8.448;2022-12-18T08:20:11;102217.50;;;-8.23;100.00
37238;BME280;23129;49.662;8.448;2022-12-18T08:22:41;102220.69;;;-8.04;100.00
37238;BME280;23129;49.662;8.448;2022-12-18T08:25:11;102216.97;;;-7.86;100.00
37238;BME280;23129;49.662;8.448;2022-12-18T08:27:39;102209.91;;;-7.66;100.00
37238;BME280;23129;49.662;8.448;2022-12-18T08:30:11;102210.84;;;-7.42;100.00
37238;BME280;23129;49.662;8.448;2022-12-18T08:32:40;102208.00;;;-7.23;100.00
37238;BME280;23129;49.662;8.448;2022-12-18T08:35:09;102199.75;;;-6.96;100.00
37238;BME280;23129;49.662;8.448;2022-12-18T08:37:38;102189.53;;;-6.72;100.00
37238;BME280;23129;49.662;8.448;2022-12-18T08:40:11;102186.31;;;-6.45;100.00
37238;BME280;23129;49.662;8.448;2022-12-18T08:42:40;102177.56;;;-6.23;100.00
37238;BME280;23129;49.662;8.448;2022-12-18T08:45:26;102173.44;;;-5.96;100.00
37238;BME280;23129;49.662;8.448;2022-12-18T08:47:55;102180.34;;;-5.68;100.00
37238;BME280;23129;49.662;8.448;2022-12-18T08:50:23;102179.50;;;-5.42;100.00
37238;BME280;23129;49.662;8.448;2022-12-18T08:52:51;102174.19;;;-5.19;100.00
37238;BME280;23129;49.662;8.448;2022-12-18T08:55:21;102173.88;;;-4.97;100.00
37238;BME280;23129;49.662;8.448;2022-12-18T08:57:50;102159.94;;;-4.74;100.00
37238;BME280;23129;49.662;8.448;2022-12-18T09:00:18;102159.50;;;-4.53;100.00
37238;BME280;23129;49.662;8.448;2022-12-18T09:02:47;102157.06;;;-4.37;100.00
37238;BME280;23129;49.662;8.448;2022-12-18T09:05:16;102145.97;;;-4.23;100.00
37238;BME280;23129;49.662;8.448;2022-12-18T09:07:45;102140.00;;;-4.08;100.00
37238;BME280;23129;49.662;8.448;2022-12-18T09:10:14;102137.16;;;-3.98;100.00
37238;BME280;23129;49.662;8.448;2022-12-18T09:12:44;102142.22;;;-3.85;100.00
37238;BME280;23129;49.662;8.448;2022-12-18T09:15:12;102138.50;;;-3.60;100.00
37238;BME280;23129;49.662;8.448;2022-12-18T09:17:41;102136.19;;;-3.41;100.00
37238;BME280;23129;49.662;8.448;2022-12-18T09:20:10;102142.97;;;-3.27;100.00
37238;BME280;23129;49.662;8.448;2022-12-18T09:22:39;102144.22;;;-3.20;100.00
37238;BME280;23129;49.662;8.448;2022-12-18T09:25:08;102156.94;;;-3.22;100.00
37238;BME280;23129;49.662;8.448;2022-12-18T09:27:36;102160.31;;;-3.23;100.00
37238;BME280;23129;49.662;8.448;2022-12-18T09:30:08;102165.06;;;-3.14;100.00
37238;BME280;23129;49.662;8.448;2022-12-18T09:32:37;102171.31;;;-3.09;100.00
37238;BME280;23129;49.662;8.448;2022-12-18T09:35:06;102176.38;;;-3.10;100.00
37238;BME280;23129;49.662;8.448;2022-12-18T09:37:34;102176.56;;;-3.07;100.00
37238;BME280;23129;49.662;8.448;2022-12-18T09:40:04;102175.09;;;-3.02;100.00
37238;BME280;23129;49.662;8.448;2022-12-18T09:42:32;102177.41;;;-2.92;100.00
37238;BME280;23129;49.662;8.448;2022-12-18T09:45:01;102183.84;;;-2.84;100.00
37238;BME280;23129;49.662;8.448;2022-12-18T09:47:36;102184.97;;;-2.79;100.00
37238;BME280;23129;49.662;8.448;2022-12-18T09:50:26;102183.38;;;-2.77;100.00
37238;BME280;23129;49.662;8.448;2022-12-18T09:52:59;102184.03;;;-2.64;100.00
37238;BME280;23129;49.662;8.448;2022-12-18T09:55:34;102192.47;;;-2.50;100.00
37238;BME280;23129;49.662;8.448;2022-12-18T09:58:12;102194.19;;;-2.35;100.00
37238;BME280;23129;49.662;8.448;2022-12-18T10:00:42;102196.66;;;-2.20;100.00
37238;BME280;23129;49.662;8.448;2022-12-18T10:03:14;102191.63;;;-2.18;100.00
37238;BME280;23129;49.662;8.448;2022-12-18T10:05:51;102180.84;;;-2.27;100.00
37238;BME280;23129;49.662;8.448;2022-12-18T10:08:32;102178.34;;;-2.26;100.00
37238;BME280;23129;49.662;8.448;2022-12-18T10:11:28;102176.34;;;-2.15;100.00
37238;BME280;23129;49.662;8.448;2022-12-18T10:14:01;102178.03;;;-1.99;100.00
37238;BME280;23129;49.662;8.448;2022-12-18T10:16:41;102179.97;;;-1.77;100.00
37238;BME280;23129;49.662;8.448;2022-12-18T10:19:34;102183.00;;;-1.52;100.00
37238;BME280;23129;49.662;8.448;2022-12-18T10:22:19;102180.34;;;-1.35;100.00
37238;BME280;23129;49.662;8.448;2022-12-18T10:24:58;102173.72;;;-1.30;100.00
37238;BME280;23129;49.662;8.448;2022-12-18T10:27:28;102183.59;;;-1.40;100.00
37238;BME280;23129;49.662;8.448;2022-12-18T10:29:58;102184.47;;;-1.39;100.00
37238;BME280;23129;49.662;8.448;2022-12-18T10:32:29;102180.63;;;-1.29;100.00
37238;BME280;23129;49.662;8.448;2022-12-18T10:34:59;102172.28;;;-1.25;100.00
37238;BME280;23129;49.662;8.448;2022-12-18T10:37:29;102161.84;;;-1.28;100.00
37238;BME280;23129;49.662;8.448;2022-12-18T10:40:10;102158.16;;;-1.33;100.00
37238;BME280;23129;49.662;8.448;2022-12-18T10:43:05;102148.00;;;-1.48;100.00
37238;BME280;23129;49.662;8.448;2022-12-18T10:45:40;102156.38;;;-1.34;100.00
37238;BME280;23129;49.662;8.448;2022-12-18T10:48:19;102156.06;;;-1.23;100.00
37238;BME280;23129;49.662;8.448;2022-12-18T10:50:51;102160.63;;;-1.17;100.00
37238;BME280;23129;49.662;8.448;2022-12-18T10:53:41;102171.59;;;-1.21;100.00
37238;BME280;23129;49.662;8.448;2022-12-18T10:56:11;102165.78;;;-1.17;100.00
37238;BME280;23129;49.662;8.448;2022-12-18T10:58:39;102159.59;;;-1.03;100.00
37238;BME280;23129;49.662;8.448;2022-12-18T11:01:11;102162.16;;;-0.85;100.00
37238;BME280;23129;49.662;8.448;2022-12-18T11:03:42;102167.97;;;-0.89;100.00
37238;BME280;23129;49.662;8.448;2022-12-18T11:06:15;102166.84;;;-0.76;100.00
37238;BME280;23129;49.662;8.448;2022-12-18T11:08:58;102161.44;;;-0.63;100.00
37238;BME280;23129;49.662;8.448;2022-12-18T11:11:28;102168.91;;;-0.50;100.00
37238;BME280;23129;49.662;8.448;2022-12-18T11:14:03;102167.56;;;-0.41;100.00
37238;BME280;23129;49.662;8.448;2022-12-18T11:16:36;102161.25;;;-0.48;100.00
37238;BME280;23129;49.662;8.448;2022-12-18T11:19:33;102163.25;;;-0.60;100.00
37238;BME280;23129;49.662;8.448;2022-12-18T11:22:18;102159.66;;;-0.64;100.00
37238;BME280;23129;49.662;8.448;2022-12-18T11:24:55;102157.47;;;-0.56;100.00
37238;BME280;23129;49.662;8.448;2022-12-18T11:27:49;102161.28;;;-0.66;100.00
37238;BME280;23129;49.662;8.448;2022-12-18T11:30:25;102164.81;;;-0.83;100.00
37238;BME280;23129;49.662;8.448;2022-12-18T11:32:58;102160.91;;;-0.93;100.00
37238;BME280;23129;49.662;8.448;2022-12-18T11:35:39;102159.22;;;-0.93;100.00
37238;BME280;23129;49.662;8.448;2022-12-18T11:38:19;102166.72;;;-0.79;100.00
37238;BME280;23129;49.662;8.448;2022-12-18T11:40:55;102154.78;;;-0.77;100.00
37238;BME280;23129;49.662;8.448;2022-12-18T11:43:28;102159.81;;;-0.61;100.00
37238;BME280;23129;49.662;8.448;2022-12-18T11:46:04;102144.03;;;-0.49;100.00
37238;BME280;23129;49.662;8.448;2022-12-18T11:48:40;102136.03;;;-0.36;100.00
37238;BME280;23129;49.662;8.448;2022-12-18T11:51:15;102131.41;;;-0.24;100.00
37238;BME280;23129;49.662;8.448;2022-12-18T11:53:54;102123.84;;;-0.19;100.00
37238;BME280;23129;49.662;8.448;2022-12-18T11:56:32;102126.56;;;-0.16;100.00
37238;BME280;23129;49.662;8.448;2022-12-18T11:59:09;102139.34;;;-0.19;100.00
37238;BME280;23129;49.662;8.448;2022-12-18T12:01:50;102139.88;;;-0.26;100.00
37238;BME280;23129;49.662;8.448;2022-12-18T12:05:00;102132.03;;;-0.29;100.00
37238;BME280;23129;49.662;8.448;2022-12-18T12:07:41;102128.50;;;-0.31;100.00
37238;BME280;23129;49.662;8.448;2022-12-18T12:10:26;102130.09;;;-0.33;100.00
37238;BME280;23129;49.662;8.448;2022-12-18T12:13:15;102129.97;;;-0.36;100.00
37238;BME280;23129;49.662;8.448;2022-12-18T12:15:58;102141.94;;;-0.38;100.00
37238;BME280;23129;49.662;8.448;2022-12-18T12:18:42;102145.03;;;-0.46;100.00
37238;BME280;23129;49.662;8.448;2022-12-18T12:21:18;102137.16;;;-0.49;100.00
37238;BME280;23129;49.662;8.448;2022-12-18T12:23:55;102128.16;;;-0.58;100.00
37238;BME280;23129;49.662;8.448;2022-12-18T12:26:35;102137.31;;;-0.65;100.00
37238;BME280;23129;49.662;8.448;2022-12-18T12:29:25;102133.34;;;-0.76;100.00
37238;BME280;23129;49.662;8.448;2022-12-18T12:32:21;102143.53;;;-0.79;100.00
37238;BME280;23129;49.662;8.448;2022-12-18T12:35:04;102139.84;;;-0.84;100.00
37238;BME280;23129;49.662;8.448;2022-12-18T12:37:45;102115.38;;;-0.94;100.00
37238;BME280;23129;49.662;8.448;2022-12-18T12:40:19;102084.88;;;-1.04;100.00
37238;BME280;23129;49.662;8.448;2022-12-18T12:43:22;102091.78;;;-1.21;100.00
37238;BME280;23129;49.662;8.448;2022-12-18T12:45:56;102094.00;;;-1.29;100.00
37238;BME280;23129;49.662;8.448;2022-12-18T12:48:40;102097.69;;;-1.42;100.00
37238;BME280;23129;49.662;8.448;2022-12-18T12:51:16;102097.25;;;-1.51;100.00
37238;BME280;23129;49.662;8.448;2022-12-18T12:53:47;102093.72;;;-1.53;100.00
37238;BME280;23129;49.662;8.448;2022-12-18T12:56:18;102091.75;;;-1.58;100.00
37238;BME280;23129;49.662;8.448;2022-12-18T12:58:56;102083.00;;;-1.62;100.00
37238;BME280;23129;49.662;8.448;2022-12-18T13:01:35;102087.06;;;-1.67;100.00
37238;BME280;23129;49.662;8.448;2022-12-18T13:04:17;102089.47;;;-1.70;100.00
37238;BME280;23129;49.662;8.448;2022-12-18T13:06:53;102077.19;;;-1.76;100.00
37238;BME280;23129;49.662;8.448;2022-12-18T13:09:24;102070.06;;;-1.81;100.00